createdAt,value
2023-01-29T00:00:27.550Z,40.50
2023-01-29T00:01:28.255Z,30.80
2023-01-29T00:02:27.488Z,52.00
2023-01-29T00:03:28.024Z,31.80
2023-01-29T00:04:27.524Z,30.50
2023-01-29T00:05:28.598Z,23.80
2023-01-29T00:06:27.514Z,27.50
2023-01-29T00:07:27.523Z,41.60
2023-01-29T00:08:27.531Z,42.20
2023-01-29T00:09:27.479Z,46.60
2023-01-29T00:10:27.440Z,65.60
2023-01-29T00:11:27.440Z,53.70
2023-01-29T00:12:27.448Z,40.20
2023-01-29T00:13:27.540Z,28.80
2023-01-29T00:14:27.567Z,25.70
2023-01-29T00:15:27.468Z,25.50
2023-01-29T00:16:27.485Z,28.80
2023-01-29T00:17:27.487Z,27.20
2023-01-29T00:18:27.485Z,50.30
2023-01-29T00:19:27.499Z,24.90
2023-01-29T00:20:27.495Z,30.50
2023-01-29T00:21:27.529Z,31.00
2023-01-29T00:22:27.525Z,24.50
2023-01-29T00:23:27.153Z,33.70
2023-01-29T00:24:27.158Z,30.90
2023-01-29T00:25:27.215Z,28.90
2023-01-29T00:26:27.393Z,35.90
2023-01-29T00:27:27.343Z,36.80
2023-01-29T00:28:27.036Z,23.50
2023-01-29T00:29:27.457Z,33.20
2023-01-29T00:30:27.473Z,34.00
2023-01-29T00:31:27.701Z,30.50
2023-01-29T00:32:27.480Z,25.10
2023-01-29T00:33:27.490Z,34.00
2023-01-29T00:34:27.486Z,34.90
2023-01-29T00:35:27.743Z,32.10
2023-01-29T00:36:27.500Z,28.60
2023-01-29T00:37:27.508Z,27.10
2023-01-29T00:38:27.616Z,33.40
2023-01-29T00:39:33.764Z,26.10
2023-01-29T00:40:28.042Z,28.10
2023-01-29T00:41:27.421Z,28.50
2023-01-29T00:42:27.442Z,28.70
2023-01-29T00:43:27.439Z,37.60
2023-01-29T00:44:27.443Z,19.40
2023-01-29T00:45:27.260Z,28.20
2023-01-29T00:46:27.496Z,27.70
2023-01-29T00:47:27.460Z,31.80
2023-01-29T00:48:27.471Z,29.30
2023-01-29T00:49:27.477Z,29.80
2023-01-29T00:50:27.181Z,29.30
2023-01-29T00:51:27.471Z,27.90
2023-01-29T00:52:26.747Z,30.90
2023-01-29T00:53:26.789Z,30.10
2023-01-29T00:54:26.794Z,32.80
2023-01-29T00:55:26.899Z,30.90
2023-01-29T00:56:26.908Z,23.80
2023-01-29T00:57:27.045Z,27.60
2023-01-29T00:58:27.098Z,24.60
2023-01-29T00:59:27.044Z,39.10
2023-01-29T01:00:27.368Z,22.80
2023-01-29T01:01:27.243Z,35.20
2023-01-29T01:02:26.856Z,35.80
2023-01-29T01:03:26.682Z,25.10
2023-01-29T01:04:26.817Z,30.00
2023-01-29T01:05:27.413Z,31.30
2023-01-29T01:06:26.786Z,31.00
2023-01-29T01:07:27.463Z,28.50
2023-01-29T01:08:26.688Z,36.60
2023-01-29T01:09:27.274Z,29.20
2023-01-29T01:10:26.486Z,26.70
2023-01-29T01:11:26.493Z,28.20
2023-01-29T01:12:26.594Z,38.30
2023-01-29T01:13:26.532Z,36.30
2023-01-29T01:14:30.691Z,35.10
2023-01-29T01:15:26.436Z,41.10
2023-01-29T01:16:26.504Z,27.80
2023-01-29T01:17:26.435Z,34.50
2023-01-29T01:18:27.121Z,26.90
2023-01-29T01:19:27.463Z,32.50
2023-01-29T01:20:26.552Z,31.50
2023-01-29T01:21:26.357Z,26.70
2023-01-29T01:22:26.500Z,25.90
2023-01-29T01:23:26.472Z,33.10
2023-01-29T01:24:26.607Z,34.90
2023-01-29T01:25:26.600Z,29.20
2023-01-29T01:26:26.333Z,27.40
2023-01-29T01:27:26.578Z,28.30
2023-01-29T01:28:26.503Z,29.40
2023-01-29T01:29:26.595Z,31.30
2023-01-29T01:30:26.572Z,33.10
2023-01-29T01:31:26.363Z,28.70
2023-01-29T01:32:26.370Z,28.40
2023-01-29T01:33:26.490Z,33.40
2023-01-29T01:34:26.429Z,26.10
2023-01-29T01:35:26.389Z,31.80
2023-01-29T01:36:30.614Z,37.80
2023-01-29T01:37:26.531Z,32.20
2023-01-29T01:38:26.832Z,35.90
2023-01-29T01:39:26.551Z,30.90
2023-01-29T01:40:26.582Z,30.70
2023-01-29T01:41:26.188Z,31.30
2023-01-29T01:42:26.660Z,31.90
2023-01-29T01:43:27.718Z,36.00
2023-01-29T01:44:26.508Z,28.80
2023-01-29T01:45:26.310Z,34.50
2023-01-29T01:46:26.137Z,29.50
2023-01-29T01:47:26.028Z,37.00
2023-01-29T01:48:26.420Z,31.90
2023-01-29T01:49:26.507Z,30.00
2023-01-29T01:50:26.606Z,37.50
2023-01-29T01:51:26.548Z,33.50
2023-01-29T01:52:26.446Z,29.50
2023-01-29T01:53:26.125Z,29.10
2023-01-29T01:54:26.109Z,35.60
2023-01-29T01:55:26.289Z,31.80
2023-01-29T01:56:26.155Z,33.90
2023-01-29T01:57:26.085Z,39.30
2023-01-29T01:58:26.275Z,37.50
2023-01-29T01:59:25.925Z,30.80
2023-01-29T02:00:26.497Z,27.50
2023-01-29T02:01:26.698Z,27.80
2023-01-29T02:02:26.539Z,33.30
2023-01-29T02:03:26.542Z,25.70
2023-01-29T02:04:26.512Z,32.00
2023-01-29T02:05:26.424Z,31.80
2023-01-29T02:06:26.435Z,37.50
2023-01-29T02:07:26.449Z,34.50
2023-01-29T02:08:26.449Z,31.40
2023-01-29T02:09:26.461Z,27.40
2023-01-29T02:10:26.503Z,25.20
2023-01-29T02:11:26.464Z,25.70
2023-01-29T02:12:26.501Z,28.80
2023-01-29T02:13:25.693Z,28.60
2023-01-29T02:14:26.076Z,25.10
2023-01-29T02:15:26.512Z,27.80
2023-01-29T02:16:25.781Z,36.30
2023-01-29T02:17:26.413Z,32.80
2023-01-29T02:18:26.539Z,31.20
2023-01-29T02:19:26.471Z,29.00
2023-01-29T02:20:26.453Z,46.30
2023-01-29T02:21:25.599Z,49.60
2023-01-29T02:22:25.686Z,49.10
2023-01-29T02:23:25.730Z,40.70
2023-01-29T02:24:25.784Z,33.30
2023-01-29T02:25:25.875Z,33.00
2023-01-29T02:26:25.844Z,33.00
2023-01-29T02:27:25.960Z,39.80
2023-01-29T02:28:26.467Z,28.00
2023-01-29T02:29:26.129Z,34.30
2023-01-29T02:30:26.068Z,33.90
2023-01-29T02:31:26.127Z,28.70
2023-01-29T02:32:26.193Z,25.30
2023-01-29T02:33:26.199Z,27.20
2023-01-29T02:34:25.617Z,29.90
2023-01-29T02:35:26.193Z,37.10
2023-01-29T02:36:25.786Z,32.50
2023-01-29T02:37:25.438Z,55.80
2023-01-29T02:38:26.164Z,25.10
2023-01-29T02:39:26.321Z,41.40
2023-01-29T02:40:26.355Z,44.50
2023-01-29T02:41:25.524Z,35.50
2023-01-29T02:42:26.445Z,34.10
2023-01-29T02:43:26.275Z,29.00
2023-01-29T02:44:26.104Z,32.60
2023-01-29T02:45:26.398Z,29.80
2023-01-29T02:46:25.279Z,28.80
2023-01-29T02:47:26.053Z,38.30
2023-01-29T02:48:25.804Z,35.60
2023-01-29T02:49:26.151Z,30.90
2023-01-29T02:50:26.581Z,31.20
2023-01-29T02:51:25.560Z,33.20
2023-01-29T02:52:25.217Z,32.50
2023-01-29T02:53:25.295Z,31.10
2023-01-29T02:54:25.441Z,33.20
2023-01-29T02:55:25.171Z,30.40
2023-01-29T02:56:25.434Z,34.00
2023-01-29T02:57:25.378Z,35.20
2023-01-29T02:58:25.132Z,35.80
2023-01-29T02:59:25.282Z,36.40
2023-01-29T03:00:25.777Z,31.40
2023-01-29T03:01:25.129Z,27.40
2023-01-29T03:02:25.091Z,32.90
2023-01-29T03:03:25.804Z,31.50
2023-01-29T03:04:25.358Z,38.50
2023-01-29T03:05:25.643Z,34.10
2023-01-29T03:06:25.777Z,38.90
2023-01-29T03:07:26.261Z,36.30
2023-01-29T03:08:25.829Z,30.90
2023-01-29T03:09:25.861Z,34.10
2023-01-29T03:10:24.990Z,44.10
2023-01-29T03:11:25.069Z,39.60
2023-01-29T03:12:25.131Z,33.50
2023-01-29T03:13:26.031Z,31.40
2023-01-29T03:14:25.908Z,36.20
2023-01-29T03:15:25.227Z,35.40
2023-01-29T03:16:25.911Z,32.50
2023-01-29T03:17:25.737Z,35.90
2023-01-29T03:18:25.658Z,34.20
2023-01-29T03:19:25.821Z,35.20
2023-01-29T03:20:24.892Z,35.00
2023-01-29T03:21:24.868Z,39.90
2023-01-29T03:22:24.981Z,36.40
2023-01-29T03:23:25.013Z,32.70
2023-01-29T03:24:25.110Z,34.10
2023-01-29T03:25:25.121Z,36.00
2023-01-29T03:26:25.029Z,37.50
2023-01-29T03:27:25.217Z,33.90
2023-01-29T03:28:25.222Z,29.90
2023-01-29T03:29:25.326Z,37.60
2023-01-29T03:30:25.335Z,26.90
2023-01-29T03:31:25.503Z,29.10
2023-01-29T03:32:25.445Z,27.90
2023-01-29T03:33:24.770Z,34.50
2023-01-29T03:34:25.060Z,35.40
2023-01-29T03:35:25.596Z,34.50
2023-01-29T03:36:25.443Z,33.70
2023-01-29T03:37:24.974Z,39.50
2023-01-29T03:38:25.512Z,36.30
2023-01-29T03:39:25.426Z,31.30
2023-01-29T03:40:25.315Z,28.80
2023-01-29T03:41:25.483Z,29.00
2023-01-29T03:42:24.592Z,30.90
2023-01-29T03:43:25.293Z,34.60
2023-01-29T03:44:25.450Z,38.10
2023-01-29T03:45:25.131Z,37.80
2023-01-29T03:46:25.252Z,39.50
2023-01-29T03:47:26.022Z,32.80
2023-01-29T03:48:24.903Z,36.70
2023-01-29T03:49:25.502Z,29.80
2023-01-29T03:50:24.539Z,37.40
2023-01-29T03:51:24.582Z,36.10
2023-01-29T03:52:24.451Z,33.30
2023-01-29T03:53:24.680Z,29.70
2023-01-29T03:54:24.576Z,31.70
2023-01-29T03:55:24.877Z,38.20
2023-01-29T03:56:24.570Z,38.50
2023-01-29T03:57:24.891Z,38.50
2023-01-29T03:58:24.911Z,34.60
2023-01-29T03:59:25.009Z,32.00
2023-01-29T04:00:25.032Z,37.20
2023-01-29T04:01:24.354Z,30.10
2023-01-29T04:02:24.321Z,38.80
2023-01-29T04:03:25.157Z,35.70
2023-01-29T04:04:24.355Z,38.10
2023-01-29T04:05:24.289Z,36.60
2023-01-29T04:06:24.258Z,39.60
2023-01-29T04:07:24.245Z,40.10
2023-01-29T04:08:24.248Z,38.40
2023-01-29T04:09:24.207Z,34.90
2023-01-29T04:10:24.226Z,35.90
2023-01-29T04:11:24.188Z,30.40
2023-01-29T04:12:24.266Z,38.00
2023-01-29T04:13:24.167Z,35.60
2023-01-29T04:14:24.166Z,38.10
2023-01-29T04:15:24.257Z,31.60
2023-01-29T04:16:24.303Z,37.60
2023-01-29T04:17:24.147Z,35.90
2023-01-29T04:18:24.122Z,33.80
2023-01-29T04:19:24.116Z,30.30
2023-01-29T04:20:24.101Z,34.50
2023-01-29T04:21:24.070Z,34.70
2023-01-29T04:22:24.057Z,38.30
2023-01-29T04:23:24.235Z,34.80
2023-01-29T04:24:24.111Z,39.70
2023-01-29T04:25:24.036Z,38.10
2023-01-29T04:26:24.257Z,34.40
2023-01-29T04:27:24.246Z,39.40
2023-01-29T04:28:23.967Z,35.00
2023-01-29T04:29:23.967Z,33.60
2023-01-29T04:30:24.027Z,38.00
2023-01-29T04:31:24.054Z,37.10
2023-01-29T04:32:23.931Z,34.50
2023-01-29T04:33:23.946Z,34.10
2023-01-29T04:34:24.245Z,41.70
2023-01-29T04:35:23.935Z,33.00
2023-01-29T04:36:24.261Z,45.50
2023-01-29T04:37:24.252Z,33.80
2023-01-29T04:38:23.842Z,42.40
2023-01-29T04:39:23.850Z,42.60
2023-01-29T04:40:23.865Z,39.20
2023-01-29T04:41:24.269Z,34.60
2023-01-29T04:42:23.799Z,36.30
2023-01-29T04:43:23.771Z,40.40
2023-01-29T04:44:24.253Z,37.40
2023-01-29T04:45:24.250Z,42.50
2023-01-29T04:46:24.252Z,37.00
2023-01-29T04:47:23.750Z,30.80
2023-01-29T04:48:23.832Z,35.50
2023-01-29T04:49:23.898Z,33.90
2023-01-29T04:50:23.867Z,31.50
2023-01-29T04:51:23.941Z,32.80
2023-01-29T04:52:23.986Z,31.90
2023-01-29T04:53:24.029Z,40.40
2023-01-29T04:54:23.655Z,36.80
2023-01-29T04:55:23.724Z,39.20
2023-01-29T04:56:23.793Z,38.70
2023-01-29T04:57:23.843Z,34.00
2023-01-29T04:58:23.602Z,38.70
2023-01-29T04:59:23.660Z,36.30
2023-01-29T05:00:23.697Z,32.30
2023-01-29T05:01:23.778Z,39.10
2023-01-29T05:02:23.528Z,37.50
2023-01-29T05:03:23.533Z,35.70
2023-01-29T05:04:23.677Z,35.90
2023-01-29T05:05:23.707Z,28.90
2023-01-29T05:06:23.481Z,44.00
2023-01-29T05:07:23.818Z,35.20
2023-01-29T05:08:23.878Z,35.50
2023-01-29T05:09:23.453Z,39.80
2023-01-29T05:10:23.985Z,45.70
2023-01-29T05:11:24.064Z,42.90
2023-01-29T05:12:24.123Z,46.60
2023-01-29T05:13:24.186Z,41.30
2023-01-29T05:14:24.238Z,44.60
2023-01-29T05:15:23.437Z,41.30
2023-01-29T05:16:23.404Z,39.00
2023-01-29T05:17:23.429Z,36.30
2023-01-29T05:18:23.371Z,47.60
2023-01-29T05:19:23.582Z,34.00
2023-01-29T05:20:23.606Z,35.90
2023-01-29T05:21:23.656Z,33.90
2023-01-29T05:22:23.297Z,39.20
2023-01-29T05:23:23.273Z,40.80
2023-01-29T05:24:23.346Z,34.50
2023-01-29T05:25:23.292Z,44.90
2023-01-29T05:26:23.223Z,34.30
2023-01-29T05:27:23.231Z,44.30
2023-01-29T05:28:23.200Z,36.10
2023-01-29T05:29:24.069Z,34.70
2023-01-29T05:30:23.218Z,34.40
2023-01-29T05:31:23.249Z,34.50
2023-01-29T05:32:24.057Z,37.30
2023-01-29T05:33:23.157Z,39.70
2023-01-29T05:34:24.275Z,35.40
2023-01-29T05:35:24.006Z,32.20
2023-01-29T05:36:24.242Z,36.90
2023-01-29T05:37:23.189Z,31.90
2023-01-29T05:38:23.089Z,40.70
2023-01-29T05:39:23.064Z,36.20
2023-01-29T05:40:23.786Z,37.00
2023-01-29T05:41:23.039Z,37.20
2023-01-29T05:42:23.842Z,48.00
2023-01-29T05:43:23.778Z,39.70
2023-01-29T05:44:23.908Z,43.00
2023-01-29T05:45:23.019Z,40.20
2023-01-29T05:46:23.102Z,47.60
2023-01-29T05:47:22.958Z,38.00
2023-01-29T05:48:22.969Z,54.30
2023-01-29T05:49:22.946Z,44.70
2023-01-29T05:50:23.363Z,41.30
2023-01-29T05:51:23.357Z,40.20
2023-01-29T05:52:22.926Z,44.10
2023-01-29T05:53:22.897Z,38.90
2023-01-29T05:54:23.527Z,48.40
2023-01-29T05:55:22.894Z,46.90
2023-01-29T05:56:22.857Z,48.40
2023-01-29T05:57:22.840Z,51.70
2023-01-29T05:58:22.825Z,44.70
2023-01-29T05:59:23.744Z,38.70
2023-01-29T06:00:22.844Z,40.70
2023-01-29T06:01:22.796Z,43.90
2023-01-29T06:02:23.720Z,45.20
2023-01-29T06:03:22.774Z,39.30
2023-01-29T06:04:23.560Z,40.90
2023-01-29T06:05:23.895Z,36.80
2023-01-29T06:06:23.594Z,35.80
2023-01-29T06:07:22.804Z,50.10
2023-01-29T06:08:22.696Z,41.80
2023-01-29T06:09:22.686Z,36.00
2023-01-29T06:10:23.478Z,41.80
2023-01-29T06:11:23.630Z,38.30
2023-01-29T06:12:24.141Z,37.00
2023-01-29T06:13:23.793Z,50.20
2023-01-29T06:14:22.624Z,38.30
2023-01-29T06:15:22.624Z,48.80
2023-01-29T06:16:22.749Z,39.00
2023-01-29T06:17:22.772Z,41.90
2023-01-29T06:18:22.839Z,39.40
2023-01-29T06:19:22.881Z,41.70
2023-01-29T06:20:22.574Z,42.90
2023-01-29T06:21:23.052Z,36.50
2023-01-29T06:22:23.144Z,35.50
2023-01-29T06:23:23.140Z,43.30
2023-01-29T06:24:22.524Z,44.10
2023-01-29T06:25:23.219Z,42.70
2023-01-29T06:26:23.201Z,38.20
2023-01-29T06:27:23.227Z,42.80
2023-01-29T06:28:23.271Z,42.60
2023-01-29T06:29:23.188Z,41.30
2023-01-29T06:30:22.439Z,42.30
2023-01-29T06:31:37.219Z,36.90
2023-01-29T06:32:23.703Z,44.70
2023-01-29T06:33:22.406Z,34.80
2023-01-29T06:34:23.208Z,42.00
2023-01-29T06:35:23.109Z,39.40
2023-01-29T06:36:23.947Z,36.30
2023-01-29T06:37:22.541Z,33.30
2023-01-29T06:38:23.027Z,40.00
2023-01-29T06:39:22.459Z,37.50
2023-01-29T06:40:23.144Z,38.90
2023-01-29T06:41:23.056Z,36.00
2023-01-29T06:42:23.208Z,35.90
2023-01-29T06:43:22.307Z,35.20
2023-01-29T06:44:22.237Z,36.20
2023-01-29T06:45:22.316Z,33.60
2023-01-29T06:46:22.486Z,33.00
2023-01-29T06:47:22.177Z,35.60
2023-01-29T06:48:22.300Z,36.10
2023-01-29T06:49:22.121Z,41.50
2023-01-29T06:50:22.666Z,32.30
2023-01-29T06:51:22.831Z,37.10
2023-01-29T06:52:22.775Z,33.60
2023-01-29T06:53:22.065Z,35.70
2023-01-29T06:54:22.839Z,32.80
2023-01-29T06:55:22.039Z,38.00
2023-01-29T06:56:22.057Z,31.30
2023-01-29T06:57:22.025Z,45.00
2023-01-29T06:58:22.023Z,37.90
2023-01-29T06:59:22.006Z,43.30
2023-01-29T07:00:21.990Z,34.80
2023-01-29T07:01:35.212Z,34.10
2023-01-29T07:02:23.375Z,29.10
2023-01-29T07:03:22.779Z,38.00
2023-01-29T07:04:21.923Z,29.40
2023-01-29T07:05:22.829Z,33.60
2023-01-29T07:06:21.946Z,35.50
2023-01-29T07:07:22.185Z,36.20
2023-01-29T07:08:22.023Z,29.60
2023-01-29T07:09:22.683Z,31.10
2023-01-29T07:10:22.820Z,35.70
2023-01-29T07:11:21.887Z,34.40
2023-01-29T07:12:21.821Z,32.00
2023-01-29T07:13:21.901Z,33.70
2023-01-29T07:14:21.927Z,29.90
2023-01-29T07:15:21.973Z,34.70
2023-01-29T07:16:22.073Z,32.00
2023-01-29T07:17:21.791Z,28.20
2023-01-29T07:18:21.772Z,32.50
2023-01-29T07:19:21.897Z,31.80
2023-01-29T07:20:21.961Z,35.80
2023-01-29T07:21:21.744Z,38.10
2023-01-29T07:22:21.917Z,27.60
2023-01-29T07:23:21.832Z,27.40
2023-01-29T07:24:22.074Z,28.80
2023-01-29T07:25:21.968Z,31.20
2023-01-29T07:26:21.682Z,34.80
2023-01-29T07:27:22.041Z,34.50
2023-01-29T07:28:21.660Z,33.00
2023-01-29T07:29:24.471Z,28.40
2023-01-29T07:30:25.894Z,27.90
2023-01-29T07:31:22.359Z,27.50
2023-01-29T07:32:22.183Z,33.30
2023-01-29T07:33:21.973Z,27.50
2023-01-29T07:34:22.317Z,32.10
2023-01-29T07:35:22.380Z,31.10
2023-01-29T07:36:22.338Z,36.70
2023-01-29T07:37:22.282Z,30.00
2023-01-29T07:38:22.573Z,29.00
2023-01-29T07:39:22.394Z,27.60
2023-01-29T07:40:22.372Z,33.40
2023-01-29T07:41:21.726Z,27.40
2023-01-29T07:42:21.525Z,33.80
2023-01-29T07:43:21.591Z,30.80
2023-01-29T07:44:21.425Z,30.80
2023-01-29T07:45:21.667Z,31.90
2023-01-29T07:46:21.767Z,31.50
2023-01-29T07:47:21.794Z,26.80
2023-01-29T07:48:21.857Z,27.70
2023-01-29T07:49:22.019Z,28.60
2023-01-29T07:50:21.563Z,39.30
2023-01-29T07:51:22.084Z,28.50
2023-01-29T07:52:22.515Z,29.40
2023-01-29T07:53:22.184Z,32.20
2023-01-29T07:54:22.187Z,33.60
2023-01-29T07:55:22.014Z,30.10
2023-01-29T07:56:21.388Z,27.60
2023-01-29T07:57:22.156Z,28.00
2023-01-29T07:58:22.072Z,30.10
2023-01-29T07:59:22.025Z,35.00
2023-01-29T08:00:21.486Z,32.90
2023-01-29T08:01:22.078Z,30.00
2023-01-29T08:02:21.994Z,35.90
2023-01-29T08:03:22.070Z,28.10
2023-01-29T08:04:22.003Z,24.80
2023-01-29T08:05:21.891Z,29.20
2023-01-29T08:06:22.050Z,24.00
2023-01-29T08:07:22.005Z,26.50
2023-01-29T08:08:22.183Z,36.10
2023-01-29T08:09:21.107Z,30.90
2023-01-29T08:10:21.192Z,28.10
2023-01-29T08:11:21.173Z,29.30
2023-01-29T08:12:21.290Z,29.70
2023-01-29T08:13:21.196Z,25.20
2023-01-29T08:14:21.239Z,28.40
2023-01-29T08:15:21.445Z,28.40
2023-01-29T08:16:21.477Z,31.00
2023-01-29T08:17:21.540Z,32.50
2023-01-29T08:18:21.150Z,27.60
2023-01-29T08:19:21.538Z,29.10
2023-01-29T08:20:21.600Z,28.40
2023-01-29T08:21:21.681Z,28.60
2023-01-29T08:22:21.708Z,31.50
2023-01-29T08:23:21.705Z,31.70
2023-01-29T08:24:22.069Z,34.40
2023-01-29T08:25:21.615Z,25.30
2023-01-29T08:26:21.737Z,31.60
2023-01-29T08:27:20.987Z,37.10
2023-01-29T08:28:21.736Z,26.30
2023-01-29T08:29:21.651Z,28.00
2023-01-29T08:30:25.984Z,27.10
2023-01-29T08:31:21.760Z,31.20
2023-01-29T08:32:21.725Z,31.00
2023-01-29T08:33:29.779Z,28.40
2023-01-29T08:34:22.355Z,34.60
2023-01-29T08:35:21.741Z,31.10
2023-01-29T08:36:21.484Z,30.20
2023-01-29T08:37:21.619Z,27.30
2023-01-29T08:38:21.552Z,32.20
2023-01-29T08:39:22.067Z,25.50
2023-01-29T08:40:20.952Z,34.80
2023-01-29T08:41:20.734Z,30.90
2023-01-29T08:42:20.677Z,27.30
2023-01-29T08:43:20.831Z,26.70
2023-01-29T08:44:20.910Z,29.90
2023-01-29T08:45:20.946Z,26.50
2023-01-29T08:46:20.766Z,31.30
2023-01-29T08:47:21.195Z,28.60
2023-01-29T08:48:20.756Z,30.00
2023-01-29T08:49:21.163Z,27.20
2023-01-29T08:50:21.222Z,29.10
2023-01-29T08:51:21.296Z,25.10
2023-01-29T08:52:21.331Z,29.40
2023-01-29T08:53:21.380Z,26.50
2023-01-29T08:54:21.315Z,25.60
2023-01-29T08:55:21.540Z,23.50
2023-01-29T08:56:21.353Z,26.70
2023-01-29T08:57:21.286Z,26.40
2023-01-29T08:58:21.422Z,21.70
2023-01-29T08:59:21.318Z,29.60
2023-01-29T09:00:21.241Z,32.30
2023-01-29T09:01:21.422Z,25.70
2023-01-29T09:02:20.929Z,23.30
2023-01-29T09:03:21.970Z,26.30
2023-01-29T09:04:21.351Z,23.30
2023-01-29T09:05:21.093Z,26.90
2023-01-29T09:06:21.243Z,25.80
2023-01-29T09:07:21.347Z,24.60
2023-01-29T09:08:21.568Z,29.10
2023-01-29T09:09:20.328Z,26.20
2023-01-29T09:10:20.422Z,23.30
2023-01-29T09:11:20.825Z,27.20
2023-01-29T09:12:20.486Z,28.00
2023-01-29T09:13:20.537Z,21.20
2023-01-29T09:14:20.569Z,22.80
2023-01-29T09:15:20.368Z,24.80
2023-01-29T09:16:20.514Z,22.30
2023-01-29T09:17:20.506Z,24.80
2023-01-29T09:18:20.248Z,20.70
2023-01-29T09:19:20.485Z,30.20
2023-01-29T09:20:20.992Z,23.60
2023-01-29T09:21:20.672Z,23.00
2023-01-29T09:22:20.552Z,18.10
2023-01-29T09:23:20.289Z,20.50
2023-01-29T09:24:20.376Z,24.60
2023-01-29T09:25:20.143Z,22.20
2023-01-29T09:26:20.458Z,22.30
2023-01-29T09:27:20.479Z,20.10
2023-01-29T09:28:20.542Z,20.50
2023-01-29T09:29:20.575Z,24.40
2023-01-29T09:30:20.764Z,24.00
2023-01-29T09:31:20.569Z,26.30
2023-01-29T09:32:43.959Z,21.40
2023-01-29T09:33:21.173Z,19.30
2023-01-29T09:34:20.888Z,23.50
2023-01-29T09:35:20.523Z,20.60
2023-01-29T09:36:21.224Z,21.00
2023-01-29T09:37:21.913Z,22.30
2023-01-29T09:38:20.563Z,17.20
2023-01-29T09:39:19.960Z,27.20
2023-01-29T09:40:20.005Z,25.60
2023-01-29T09:41:20.663Z,24.40
2023-01-29T09:42:20.063Z,25.80
2023-01-29T09:43:20.181Z,19.30
2023-01-29T09:44:19.938Z,26.90
2023-01-29T09:45:20.595Z,23.80
2023-01-29T09:46:20.504Z,39.60
2023-01-29T09:47:20.478Z,27.20
2023-01-29T09:48:19.887Z,29.10
2023-01-29T09:49:20.525Z,31.80
2023-01-29T09:50:20.574Z,24.40
2023-01-29T09:51:20.607Z,22.80
2023-01-29T09:52:20.685Z,19.50
2023-01-29T09:53:20.739Z,21.10
2023-01-29T09:54:20.644Z,20.50
2023-01-29T09:55:20.390Z,21.90
2023-01-29T09:56:20.915Z,27.20
2023-01-29T09:57:24.761Z,23.20
2023-01-29T09:58:20.020Z,24.40
2023-01-29T09:59:19.922Z,22.00
2023-01-29T10:00:20.593Z,25.30
2023-01-29T10:01:20.760Z,31.30
2023-01-29T10:02:20.506Z,27.50
2023-01-29T10:03:20.137Z,24.70
2023-01-29T10:04:20.104Z,21.20
2023-01-29T10:05:20.829Z,28.40
2023-01-29T10:06:19.602Z,21.50
2023-01-29T10:07:20.477Z,22.30
2023-01-29T10:08:20.328Z,18.70
2023-01-29T10:09:19.997Z,23.60
2023-01-29T10:10:19.657Z,24.40
2023-01-29T10:11:19.722Z,22.30
2023-01-29T10:12:19.800Z,20.90
2023-01-29T10:13:19.948Z,22.70
2023-01-29T10:14:19.869Z,22.00
2023-01-29T10:15:20.022Z,20.80
2023-01-29T10:16:20.117Z,22.80
2023-01-29T10:17:20.086Z,23.10
2023-01-29T10:18:20.141Z,22.20
2023-01-29T10:19:20.120Z,23.40
2023-01-29T10:20:20.227Z,32.40
2023-01-29T10:21:20.373Z,20.50
2023-01-29T10:22:20.255Z,25.30
2023-01-29T10:23:19.732Z,23.50
2023-01-29T10:24:20.399Z,23.10
2023-01-29T10:25:20.503Z,20.90
2023-01-29T10:26:20.477Z,16.80
2023-01-29T10:27:20.022Z,22.90
2023-01-29T10:28:19.790Z,23.00
2023-01-29T10:29:20.071Z,20.70
2023-01-29T10:30:20.486Z,19.60
2023-01-29T10:31:20.222Z,24.10
2023-01-29T10:32:20.065Z,20.90
2023-01-29T10:33:20.234Z,17.80
2023-01-29T10:34:19.363Z,17.80
2023-01-29T10:35:19.390Z,21.00
2023-01-29T10:36:20.609Z,19.50
2023-01-29T10:37:20.101Z,20.60
2023-01-29T10:38:19.206Z,18.60
2023-01-29T10:39:20.327Z,17.90
2023-01-29T10:40:23.495Z,19.00
2023-01-29T10:41:19.414Z,15.30
2023-01-29T10:42:19.491Z,28.50
2023-01-29T10:43:19.451Z,16.10
2023-01-29T10:44:19.503Z,18.40
2023-01-29T10:45:19.908Z,18.70
2023-01-29T10:46:19.205Z,26.90
2023-01-29T10:47:19.718Z,19.70
2023-01-29T10:48:19.558Z,21.50
2023-01-29T10:49:19.875Z,25.70
2023-01-29T10:50:19.546Z,21.20
2023-01-29T10:51:19.068Z,17.70
2023-01-29T10:52:19.105Z,16.90
2023-01-29T10:53:19.381Z,16.20
2023-01-29T10:54:19.741Z,19.10
2023-01-29T10:55:19.241Z,18.70
2023-01-29T10:56:23.107Z,19.40
2023-01-29T10:57:19.831Z,18.70
2023-01-29T10:58:20.451Z,15.90
2023-01-29T10:59:19.780Z,19.50
2023-01-29T11:00:19.483Z,19.50
2023-01-29T11:01:19.883Z,16.10
2023-01-29T11:02:19.825Z,24.90
2023-01-29T11:03:27.534Z,19.00
2023-01-29T11:04:20.610Z,20.30
2023-01-29T11:05:19.726Z,14.10
2023-01-29T11:06:19.625Z,18.00
2023-01-29T11:07:18.873Z,18.20
2023-01-29T11:08:18.860Z,20.60
2023-01-29T11:09:18.941Z,17.00
2023-01-29T11:10:19.184Z,19.10
2023-01-29T11:11:19.065Z,18.50
2023-01-29T11:12:20.940Z,14.50
2023-01-29T11:13:19.183Z,18.10
2023-01-29T11:14:19.195Z,20.70
2023-01-29T11:15:19.050Z,13.70
2023-01-29T11:16:19.307Z,16.90
2023-01-29T11:17:19.381Z,24.40
2023-01-29T11:18:18.947Z,20.30
2023-01-29T11:19:23.589Z,20.50
2023-01-29T11:20:19.033Z,15.80
2023-01-29T11:21:18.647Z,17.10
2023-01-29T11:22:19.371Z,16.00
2023-01-29T11:23:19.530Z,20.40
2023-01-29T11:24:19.439Z,18.00
2023-01-29T11:25:18.674Z,17.90
2023-01-29T11:26:18.761Z,14.10
2023-01-29T11:27:19.397Z,17.90
2023-01-29T11:28:19.306Z,14.60
2023-01-29T11:29:19.049Z,17.30
2023-01-29T11:30:19.696Z,11.10
2023-01-29T11:31:19.358Z,20.00
2023-01-29T11:32:19.428Z,15.70
2023-01-29T11:33:19.335Z,16.20
2023-01-29T11:34:19.364Z,11.40
2023-01-29T11:35:19.426Z,16.10
2023-01-29T11:36:19.397Z,12.90
2023-01-29T11:37:18.500Z,16.00
2023-01-29T11:38:18.563Z,14.90
2023-01-29T11:39:18.622Z,17.00
2023-01-29T11:40:19.030Z,16.70
2023-01-29T11:41:18.753Z,20.40
2023-01-29T11:42:18.517Z,15.50
2023-01-29T11:43:18.871Z,11.60
2023-01-29T11:44:20.178Z,10.10
2023-01-29T11:45:18.956Z,13.70
2023-01-29T11:46:19.016Z,14.60
2023-01-29T11:47:19.013Z,22.10
2023-01-29T11:48:18.874Z,13.00
2023-01-29T11:49:20.973Z,17.90
2023-01-29T11:50:19.035Z,19.70
2023-01-29T11:51:19.037Z,12.00
2023-01-29T11:52:19.042Z,13.20
2023-01-29T11:53:19.043Z,18.90
2023-01-29T11:54:19.123Z,11.30
2023-01-29T11:55:18.637Z,16.90
2023-01-29T11:56:19.322Z,16.60
2023-01-29T11:57:19.417Z,16.80
2023-01-29T11:58:19.022Z,12.60
2023-01-29T11:59:19.143Z,13.50
2023-01-29T12:00:19.524Z,18.80
2023-01-29T12:01:19.134Z,19.70
2023-01-29T12:02:19.035Z,12.50
2023-01-29T12:03:19.092Z,14.60
2023-01-29T12:04:18.357Z,15.30
2023-01-29T12:05:18.824Z,12.20
2023-01-29T12:06:18.271Z,12.80
2023-01-29T12:07:18.194Z,14.00
2023-01-29T12:08:18.228Z,17.70
2023-01-29T12:09:18.315Z,13.50
2023-01-29T12:10:18.735Z,15.00
2023-01-29T12:11:18.432Z,15.40
2023-01-29T12:12:18.008Z,16.20
2023-01-29T12:13:18.420Z,22.80
2023-01-29T12:14:18.152Z,15.90
2023-01-29T12:15:18.517Z,14.20
2023-01-29T12:16:18.821Z,14.80
2023-01-29T12:17:18.255Z,17.30
2023-01-29T12:18:18.031Z,11.00
2023-01-29T12:19:18.818Z,11.40
2023-01-29T12:20:18.571Z,8.60
2023-01-29T12:21:17.936Z,12.60
2023-01-29T12:22:18.791Z,13.40
2023-01-29T12:23:18.925Z,10.80
2023-01-29T12:24:18.459Z,16.30
2023-01-29T12:25:18.405Z,17.60
2023-01-29T12:26:18.222Z,16.10
2023-01-29T12:27:17.834Z,18.30
2023-01-29T12:28:17.870Z,19.40
2023-01-29T12:29:17.920Z,15.10
2023-01-29T12:30:19.272Z,11.20
2023-01-29T12:31:17.876Z,13.60
2023-01-29T12:32:18.021Z,16.00
2023-01-29T12:33:18.088Z,19.60
2023-01-29T12:34:18.696Z,13.00
2023-01-29T12:35:18.544Z,13.30
2023-01-29T12:36:23.315Z,11.50
2023-01-29T12:37:17.737Z,14.00
2023-01-29T12:38:17.802Z,12.50
2023-01-29T12:39:17.789Z,11.50
2023-01-29T12:40:18.133Z,11.50
2023-01-29T12:41:17.905Z,10.40
2023-01-29T12:42:17.928Z,11.00
2023-01-29T12:43:17.637Z,13.90
2023-01-29T12:44:18.109Z,14.20
2023-01-29T12:45:18.127Z,11.60
2023-01-29T12:46:18.206Z,13.40
2023-01-29T12:47:17.583Z,12.40
2023-01-29T12:48:17.606Z,13.00
2023-01-29T12:49:17.815Z,13.50
2023-01-29T12:50:17.874Z,31.80
2023-01-29T12:51:17.833Z,15.00
2023-01-29T12:52:17.993Z,8.40